sensor_id;sensor_type;location;lat;lon;timestamp;temperature;humidity
59025;DHT22;44806;48.008;13.666;2023-02-26T00:00:28;2.50;99.90
59025;DHT22;44806;48.008;13.666;2023-02-26T00:02:56;2.60;99.90
59025;DHT22;44806;48.008;13.666;2023-02-26T00:05:23;2.60;99.90
59025;DHT22;44806;48.008;13.666;2023-02-26T00:07:50;2.50;99.90
59025;DHT22;44806;48.008;13.666;2023-02-26T00:10:18;2.50;99.90
59025;DHT22;44806;48.008;13.666;2023-02-26T00:12:47;2.50;99.90
59025;DHT22;44806;48.008;13.666;2023-02-26T00:15:15;2.50;99.90
59025;DHT22;44806;48.008;13.666;2023-02-26T00:17:47;2.50;99.90
59025;DHT22;44806;48.008;13.666;2023-02-26T00:20:16;2.50;99.90
59025;DHT22;44806;48.008;13.666;2023-02-26T00:22:44;2.60;99.90
59025;DHT22;44806;48.008;13.666;2023-02-26T00:25:11;2.70;99.90
59025;DHT22;44806;48.008;13.666;2023-02-26T00:27:39;2.70;99.90
59025;DHT22;44806;48.008;13.666;2023-02-26T00:30:10;2.80;99.90
59025;DHT22;44806;48.008;13.666;2023-02-26T00:32:41;2.70;99.90
59025;DHT22;44806;48.008;13.666;2023-02-26T00:35:13;2.80;99.90
59025;DHT22;44806;48.008;13.666;2023-02-26T00:38:01;2.60;99.90
59025;DHT22;44806;48.008;13.666;2023-02-26T00:40:35;2.50;99.90
59025;DHT22;44806;48.008;13.666;2023-02-26T00:43:04;2.50;99.90
59025;DHT22;44806;48.008;13.666;2023-02-26T00:45:34;2.40;99.90
59025;DHT22;44806;48.008;13.666;2023-02-26T00:48:20;2.30;99.90
59025;DHT22;44806;48.008;13.666;2023-02-26T00:50:58;2.30;99.90
59025;DHT22;44806;48.008;13.666;2023-02-26T00:53:31;2.20;99.90
59025;DHT22;44806;48.008;13.666;2023-02-26T00:56:01;2.20;99.90
59025;DHT22;44806;48.008;13.666;2023-02-26T00:58:28;2.10;99.90
59025;DHT22;44806;48.008;13.666;2023-02-26T01:00:57;2.10;99.90
59025;DHT22;44806;48.008;13.666;2023-02-26T01:03:26;2.00;99.90
59025;DHT22;44806;48.008;13.666;2023-02-26T01:05:54;2.00;99.90
59025;DHT22;44806;48.008;13.666;2023-02-26T01:08:28;2.10;99.90
59025;DHT22;44806;48.008;13.666;2023-02-26T01:10:57;2.10;99.90
59025;DHT22;44806;48.008;13.666;2023-02-26T01:13:24;2.10;99.90
59025;DHT22;44806;48.008;13.666;2023-02-26T01:15:58;2.00;99.90
59025;DHT22;44806;48.008;13.666;2023-02-26T01:18:32;2.00;99.90
59025;DHT22;44806;48.008;13.666;2023-02-26T01:21:05;2.10;99.90
59025;DHT22;44806;48.008;13.666;2023-02-26T01:23:39;2.00;99.90
59025;DHT22;44806;48.008;13.666;2023-02-26T01:26:12;2.00;99.90
59025;DHT22;44806;48.008;13.666;2023-02-26T01:28:41;1.90;99.90
59025;DHT22;44806;48.008;13.666;2023-02-26T01:31:29;1.80;99.90
59025;DHT22;44806;48.008;13.666;2023-02-26T01:34:01;1.80;99.90
59025;DHT22;44806;48.008;13.666;2023-02-26T01:36:32;1.80;99.90
59025;DHT22;44806;48.008;13.666;2023-02-26T01:39:07;1.70;99.90
59025;DHT22;44806;48.008;13.666;2023-02-26T01:41:39;1.60;99.90
59025;DHT22;44806;48.008;13.666;2023-02-26T01:44:16;1.50;99.90
59025;DHT22;44806;48.008;13.666;2023-02-26T01:46:59;1.60;99.90
59025;DHT22;44806;48.008;13.666;2023-02-26T01:49:28;1.60;99.90
59025;DHT22;44806;48.008;13.666;2023-02-26T01:51:57;1.60;99.90
59025;DHT22;44806;48.008;13.666;2023-02-26T01:54:29;1.60;99.90
59025;DHT22;44806;48.008;13.666;2023-02-26T01:56:59;1.60;99.90
59025;DHT22;44806;48.008;13.666;2023-02-26T01:59:30;1.50;99.90
59025;DHT22;44806;48.008;13.666;2023-02-26T02:02:01;1.50;99.90
59025;DHT22;44806;48.008;13.666;2023-02-26T02:04:30;1.50;99.90
59025;DHT22;44806;48.008;13.666;2023-02-26T02:06:58;1.50;99.90
59025;DHT22;44806;48.008;13.666;2023-02-26T02:09:30;1.40;99.90
59025;DHT22;44806;48.008;13.666;2023-02-26T02:12:05;1.40;99.90
59025;DHT22;44806;48.008;13.666;2023-02-26T02:14:42;1.50;99.90
59025;DHT22;44806;48.008;13.666;2023-02-26T02:17:18;1.50;99.90
59025;DHT22;44806;48.008;13.666;2023-02-26T02:23:01;1.40;99.90
59025;DHT22;44806;48.008;13.666;2023-02-26T02:25:59;1.50;99.90
59025;DHT22;44806;48.008;13.666;2023-02-26T02:28:39;1.50;99.90
59025;DHT22;44806;48.008;13.666;2023-02-26T02:31:11;1.40;99.90
59025;DHT22;44806;48.008;13.666;2023-02-26T02:33:45;1.30;99.90
59025;DHT22;44806;48.008;13.666;2023-02-26T02:36:16;1.20;99.90
59025;DHT22;44806;48.008;13.666;2023-02-26T02:38:48;1.20;99.90
59025;DHT22;44806;48.008;13.666;2023-02-26T02:41:20;1.10;99.90
59025;DHT22;44806;48.008;13.666;2023-02-26T02:43:51;1.10;99.90
59025;DHT22;44806;48.008;13.666;2023-02-26T02:46:24;1.10;99.90
59025;DHT22;44806;48.008;13.666;2023-02-26T02:48:57;1.00;99.90
59025;DHT22;44806;48.008;13.666;2023-02-26T02:51:29;1.10;99.90
59025;DHT22;44806;48.008;13.666;2023-02-26T02:54:00;1.30;99.90
59025;DHT22;44806;48.008;13.666;2023-02-26T02:56:33;1.20;99.90
59025;DHT22;44806;48.008;13.666;2023-02-26T02:59:09;1.20;99.90
59025;DHT22;44806;48.008;13.666;2023-02-26T03:01:40;1.20;99.90
59025;DHT22;44806;48.008;13.666;2023-02-26T03:04:09;1.20;99.90
59025;DHT22;44806;48.008;13.666;2023-02-26T03:06:37;1.30;99.90
59025;DHT22;44806;48.008;13.666;2023-02-26T03:09:06;1.30;99.90
59025;DHT22;44806;48.008;13.666;2023-02-26T03:11:38;1.40;99.90
59025;DHT22;44806;48.008;13.666;2023-02-26T03:14:06;1.60;99.90
59025;DHT22;44806;48.008;13.666;2023-02-26T03:16:53;1.60;99.90
59025;DHT22;44806;48.008;13.666;2023-02-26T03:19:25;1.70;99.90
59025;DHT22;44806;48.008;13.666;2023-02-26T03:22:00;1.70;99.90
59025;DHT22;44806;48.008;13.666;2023-02-26T03:24:31;1.60;99.90
59025;DHT22;44806;48.008;13.666;2023-02-26T03:27:06;1.70;99.90
59025;DHT22;44806;48.008;13.666;2023-02-26T03:29:44;1.70;99.90
59025;DHT22;44806;48.008;13.666;2023-02-26T03:32:18;1.70;99.90
59025;DHT22;44806;48.008;13.666;2023-02-26T03:34:51;1.60;99.90
59025;DHT22;44806;48.008;13.666;2023-02-26T03:37:23;1.60;99.90
59025;DHT22;44806;48.008;13.666;2023-02-26T03:39:55;1.60;99.90
59025;DHT22;44806;48.008;13.666;2023-02-26T03:42:27;1.70;99.90
59025;DHT22;44806;48.008;13.666;2023-02-26T03:44:57;1.60;99.90
59025;DHT22;44806;48.008;13.666;2023-02-26T03:47:28;1.50;99.90
59025;DHT22;44806;48.008;13.666;2023-02-26T03:50:00;1.50;99.90
59025;DHT22;44806;48.008;13.666;2023-02-26T03:52:33;1.50;99.90
59025;DHT22;44806;48.008;13.666;2023-02-26T03:55:04;1.50;99.90
59025;DHT22;44806;48.008;13.666;2023-02-26T03:57:33;1.50;99.90
59025;DHT22;44806;48.008;13.666;2023-02-26T04:00:00;1.50;99.90
59025;DHT22;44806;48.008;13.666;2023-02-26T04:02:33;1.50;99.90
59025;DHT22;44806;48.008;13.666;2023-02-26T04:05:07;1.50;99.90
59025;DHT22;44806;48.008;13.666;2023-02-26T04:07:36;1.50;99.90
59025;DHT22;44806;48.008;13.666;2023-02-26T04:10:09;1.40;99.90
59025;DHT22;44806;48.008;13.666;2023-02-26T04:12:37;1.40;99.90
59025;DHT22;44806;48.008;13.666;2023-02-26T04:15:07;1.30;99.90
59025;DHT22;44806;48.008;13.666;2023-02-26T04:17:36;1.30;99.90
59025;DHT22;44806;48.008;13.666;2023-02-26T04:20:04;1.30;99.90
59025;DHT22;44806;48.008;13.666;2023-02-26T04:22:35;1.20;99.90
59025;DHT22;44806;48.008;13.666;2023-02-26T04:25:03;1.40;99.90
59025;DHT22;44806;48.008;13.666;2023-02-26T04:27:30;1.40;99.90
59025;DHT22;44806;48.008;13.666;2023-02-26T04:29:58;1.40;99.90
59025;DHT22;44806;48.008;13.666;2023-02-26T04:32:25;1.50;99.90
59025;DHT22;44806;48.008;13.666;2023-02-26T04:34:53;1.50;99.90
59025;DHT22;44806;48.008;13.666;2023-02-26T04:37:20;1.60;99.90
59025;DHT22;44806;48.008;13.666;2023-02-26T04:39:47;1.70;99.90
59025;DHT22;44806;48.008;13.666;2023-02-26T04:42:15;1.70;99.90
59025;DHT22;44806;48.008;13.666;2023-02-26T04:44:44;1.70;99.90
59025;DHT22;44806;48.008;13.666;2023-02-26T04:47:11;1.50;99.90
59025;DHT22;44806;48.008;13.666;2023-02-26T04:49:39;1.60;99.90
59025;DHT22;44806;48.008;13.666;2023-02-26T04:52:07;1.60;99.90
59025;DHT22;44806;48.008;13.666;2023-02-26T04:54:35;1.60;99.90
59025;DHT22;44806;48.008;13.666;2023-02-26T04:57:02;1.70;99.90
59025;DHT22;44806;48.008;13.666;2023-02-26T04:59:29;1.70;99.90
59025;DHT22;44806;48.008;13.666;2023-02-26T05:01:57;1.70;99.90
59025;DHT22;44806;48.008;13.666;2023-02-26T05:04:24;1.80;99.90
59025;DHT22;44806;48.008;13.666;2023-02-26T05:06:51;1.70;99.90
59025;DHT22;44806;48.008;13.666;2023-02-26T05:09:19;1.80;99.90
59025;DHT22;44806;48.008;13.666;2023-02-26T05:11:46;1.90;99.90
59025;DHT22;44806;48.008;13.666;2023-02-26T05:14:14;1.60;99.90
59025;DHT22;44806;48.008;13.666;2023-02-26T05:16:42;1.60;99.90
59025;DHT22;44806;48.008;13.666;2023-02-26T05:19:09;1.60;99.90
59025;DHT22;44806;48.008;13.666;2023-02-26T05:21:39;1.50;99.90
59025;DHT22;44806;48.008;13.666;2023-02-26T05:24:06;1.50;99.90
59025;DHT22;44806;48.008;13.666;2023-02-26T05:26:35;1.50;99.90
59025;DHT22;44806;48.008;13.666;2023-02-26T05:29:02;1.50;99.90
59025;DHT22;44806;48.008;13.666;2023-02-26T05:31:29;1.60;99.90
59025;DHT22;44806;48.008;13.666;2023-02-26T05:33:56;1.60;99.90
59025;DHT22;44806;48.008;13.666;2023-02-26T05:36:24;1.60;99.90
59025;DHT22;44806;48.008;13.666;2023-02-26T05:38:51;1.60;99.90
59025;DHT22;44806;48.008;13.666;2023-02-26T05:41:18;1.60;99.90
59025;DHT22;44806;48.008;13.666;2023-02-26T05:43:47;1.70;99.90
59025;DHT22;44806;48.008;13.666;2023-02-26T05:46:14;1.70;99.90
59025;DHT22;44806;48.008;13.666;2023-02-26T05:48:41;1.60;99.90
59025;DHT22;44806;48.008;13.666;2023-02-26T05:51:08;1.60;99.90
59025;DHT22;44806;48.008;13.666;2023-02-26T05:53:36;1.60;99.90
59025;DHT22;44806;48.008;13.666;2023-02-26T05:56:03;1.60;99.90
59025;DHT22;44806;48.008;13.666;2023-02-26T05:58:30;1.60;99.90
59025;DHT22;44806;48.008;13.666;2023-02-26T06:01:00;1.60;99.90
59025;DHT22;44806;48.008;13.666;2023-02-26T06:03:27;1.60;99.90
59025;DHT22;44806;48.008;13.666;2023-02-26T06:05:54;1.50;99.90
59025;DHT22;44806;48.008;13.666;2023-02-26T06:08:24;1.60;99.90
59025;DHT22;44806;48.008;13.666;2023-02-26T06:10:51;1.50;99.90
59025;DHT22;44806;48.008;13.666;2023-02-26T06:13:18;1.60;99.90
59025;DHT22;44806;48.008;13.666;2023-02-26T06:15:49;1.60;99.90
59025;DHT22;44806;48.008;13.666;2023-02-26T06:18:18;1.60;99.90
59025;DHT22;44806;48.008;13.666;2023-02-26T06:20:45;1.50;99.90
59025;DHT22;44806;48.008;13.666;2023-02-26T06:23:12;1.60;99.90
59025;DHT22;44806;48.008;13.666;2023-02-26T06:25:40;1.60;99.90
59025;DHT22;44806;48.008;13.666;2023-02-26T06:28:10;1.60;99.90
59025;DHT22;44806;48.008;13.666;2023-02-26T06:30:38;1.60;99.90
59025;DHT22;44806;48.008;13.666;2023-02-26T06:33:05;1.50;99.90
59025;DHT22;44806;48.008;13.666;2023-02-26T06:35:33;1.40;99.90
59025;DHT22;44806;48.008;13.666;2023-02-26T06:38:00;1.50;99.90
59025;DHT22;44806;48.008;13.666;2023-02-26T06:40:27;1.50;99.90
59025;DHT22;44806;48.008;13.666;2023-02-26T06:42:55;1.50;99.90
59025;DHT22;44806;48.008;13.666;2023-02-26T06:45:23;1.60;99.90
59025;DHT22;44806;48.008;13.666;2023-02-26T06:47:50;1.60;99.90
59025;DHT22;44806;48.008;13.666;2023-02-26T06:50:19;1.60;99.90
59025;DHT22;44806;48.008;13.666;2023-02-26T06:52:50;1.60;99.90
59025;DHT22;44806;48.008;13.666;2023-02-26T06:55:17;1.60;99.90
59025;DHT22;44806;48.008;13.666;2023-02-26T06:57:46;1.60;99.90
59025;DHT22;44806;48.008;13.666;2023-02-26T07:00:14;1.60;99.90
59025;DHT22;44806;48.008;13.666;2023-02-26T07:02:41;1.60;99.90
59025;DHT22;44806;48.008;13.666;2023-02-26T07:05:09;1.60;99.90
59025;DHT22;44806;48.008;13.666;2023-02-26T07:07:36;1.50;99.90
59025;DHT22;44806;48.008;13.666;2023-02-26T07:10:08;1.50;99.90
59025;DHT22;44806;48.008;13.666;2023-02-26T07:12:36;1.50;99.90
59025;DHT22;44806;48.008;13.666;2023-02-26T07:15:05;1.50;99.90
59025;DHT22;44806;48.008;13.666;2023-02-26T07:17:33;1.60;99.90
59025;DHT22;44806;48.008;13.666;2023-02-26T07:20:00;1.70;99.90
59025;DHT22;44806;48.008;13.666;2023-02-26T07:22:31;1.80;99.90
59025;DHT22;44806;48.008;13.666;2023-02-26T07:24:58;1.70;99.90
59025;DHT22;44806;48.008;13.666;2023-02-26T07:27:27;1.80;99.90
59025;DHT22;44806;48.008;13.666;2023-02-26T07:29:56;1.70;99.90
59025;DHT22;44806;48.008;13.666;2023-02-26T07:32:23;1.70;99.90
59025;DHT22;44806;48.008;13.666;2023-02-26T07:34:51;1.70;99.90
59025;DHT22;44806;48.008;13.666;2023-02-26T07:37:18;1.70;99.90
59025;DHT22;44806;48.008;13.666;2023-02-26T07:39:46;1.80;99.90
59025;DHT22;44806;48.008;13.666;2023-02-26T07:42:13;1.80;99.90
59025;DHT22;44806;48.008;13.666;2023-02-26T07:44:44;1.80;99.90
59025;DHT22;44806;48.008;13.666;2023-02-26T07:47:11;1.80;99.90
59025;DHT22;44806;48.008;13.666;2023-02-26T07:49:39;1.80;99.90
59025;DHT22;44806;48.008;13.666;2023-02-26T07:52:06;1.90;99.90
59025;DHT22;44806;48.008;13.666;2023-02-26T07:54:33;1.90;99.90
59025;DHT22;44806;48.008;13.666;2023-02-26T07:57:01;2.10;99.90
59025;DHT22;44806;48.008;13.666;2023-02-26T07:59:29;2.10;99.90
59025;DHT22;44806;48.008;13.666;2023-02-26T08:01:57;2.00;99.90
59025;DHT22;44806;48.008;13.666;2023-02-26T08:04:25;2.00;99.90
59025;DHT22;44806;48.008;13.666;2023-02-26T08:06:52;2.00;99.90
59025;DHT22;44806;48.008;13.666;2023-02-26T08:09:23;2.00;99.90
59025;DHT22;44806;48.008;13.666;2023-02-26T08:11:53;2.10;99.90
59025;DHT22;44806;48.008;13.666;2023-02-26T08:14:20;2.10;99.90
59025;DHT22;44806;48.008;13.666;2023-02-26T08:16:48;2.10;99.90
59025;DHT22;44806;48.008;13.666;2023-02-26T08:19:19;2.00;99.90
59025;DHT22;44806;48.008;13.666;2023-02-26T08:21:47;2.10;99.90
59025;DHT22;44806;48.008;13.666;2023-02-26T08:24:14;2.20;99.90
59025;DHT22;44806;48.008;13.666;2023-02-26T08:26:41;2.20;99.90
59025;DHT22;44806;48.008;13.666;2023-02-26T08:29:10;2.20;99.90
59025;DHT22;44806;48.008;13.666;2023-02-26T08:31:37;2.20;99.90
59025;DHT22;44806;48.008;13.666;2023-02-26T08:34:04;2.30;99.90
59025;DHT22;44806;48.008;13.666;2023-02-26T08:36:36;2.40;99.90
59025;DHT22;44806;48.008;13.666;2023-02-26T08:39:03;2.50;99.90
59025;DHT22;44806;48.008;13.666;2023-02-26T08:41:30;2.60;99.90
59025;DHT22;44806;48.008;13.666;2023-02-26T08:43:58;2.60;99.90
59025;DHT22;44806;48.008;13.666;2023-02-26T08:46:26;2.70;99.90
59025;DHT22;44806;48.008;13.666;2023-02-26T08:48:55;2.70;99.90
59025;DHT22;44806;48.008;13.666;2023-02-26T08:51:22;2.70;99.90
59025;DHT22;44806;48.008;13.666;2023-02-26T08:53:51;2.50;99.90
59025;DHT22;44806;48.008;13.666;2023-02-26T08:56:18;2.60;99.90
59025;DHT22;44806;48.008;13.666;2023-02-26T08:58:45;2.70;99.90
59025;DHT22;44806;48.008;13.666;2023-02-26T09:01:13;2.80;99.90
59025;DHT22;44806;48.008;13.666;2023-02-26T09:03:40;2.80;99.90
59025;DHT22;44806;48.008;13.666;2023-02-26T09:06:07;2.90;99.90
59025;DHT22;44806;48.008;13.666;2023-02-26T09:08:37;3.00;99.90
59025;DHT22;44806;48.008;13.666;2023-02-26T09:11:05;2.90;99.90
59025;DHT22;44806;48.008;13.666;2023-02-26T09:13:35;2.70;99.90
59025;DHT22;44806;48.008;13.666;2023-02-26T09:16:06;2.40;99.90
59025;DHT22;44806;48.008;13.666;2023-02-26T09:18:33;2.30;99.90
59025;DHT22;44806;48.008;13.666;2023-02-26T09:21:03;2.40;99.90
59025;DHT22;44806;48.008;13.666;2023-02-26T09:23:30;2.30;99.90
59025;DHT22;44806;48.008;13.666;2023-02-26T09:25:58;2.30;99.90
59025;DHT22;44806;48.008;13.666;2023-02-26T09:28:26;2.30;99.90
59025;DHT22;44806;48.008;13.666;2023-02-26T09:30:54;2.30;99.90
59025;DHT22;44806;48.008;13.666;2023-02-26T09:33:21;2.30;99.90
59025;DHT22;44806;48.008;13.666;2023-02-26T09:35:49;2.20;99.90
59025;DHT22;44806;48.008;13.666;2023-02-26T09:38:17;2.20;99.90
59025;DHT22;44806;48.008;13.666;2023-02-26T09:40:47;2.30;99.90
59025;DHT22;44806;48.008;13.666;2023-02-26T09:46:27;2.30;99.90
59025;DHT22;44806;48.008;13.666;2023-02-26T09:49:03;2.40;99.90
59025;DHT22;44806;48.008;13.666;2023-02-26T09:51:33;2.40;99.90
59025;DHT22;44806;48.008;13.666;2023-02-26T09:54:09;2.40;99.90
59025;DHT22;44806;48.008;13.666;2023-02-26T09:56:41;2.40;99.90
59025;DHT22;44806;48.008;13.666;2023-02-26T09:59:11;2.30;99.90
59025;DHT22;44806;48.008;13.666;2023-02-26T10:01:47;2.20;99.90
59025;DHT22;44806;48.008;13.666;2023-02-26T10:04:24;2.30;99.90
59025;DHT22;44806;48.008;13.666;2023-02-26T10:07:06;2.40;99.90
59025;DHT22;44806;48.008;13.666;2023-02-26T10:09:45;2.40;99.90
59025;DHT22;44806;48.008;13.666;2023-02-26T10:12:18;2.50;99.90
59025;DHT22;44806;48.008;13.666;2023-02-26T10:14:51;2.50;99.90
59025;DHT22;44806;48.008;13.666;2023-02-26T10:17:27;2.60;99.90
59025;DHT22;44806;48.008;13.666;2023-02-26T10:19:59;2.50;99.90
59025;DHT22;44806;48.008;13.666;2023-02-26T10:22:33;2.30;99.90
59025;DHT22;44806;48.008;13.666;2023-02-26T10:25:08;2.30;99.90
59025;DHT22;44806;48.008;13.666;2023-02-26T10:27:48;2.40;99.90
59025;DHT22;44806;48.008;13.666;2023-02-26T10:30:24;2.30;99.90
59025;DHT22;44806;48.008;13.666;2023-02-26T10:33:02;2.20;99.90
59025;DHT22;44806;48.008;13.666;2023-02-26T10:35:38;2.20;99.90
59025;DHT22;44806;48.008;13.666;2023-02-26T10:38:11;2.30;99.90
59025;DHT22;44806;48.008;13.666;2023-02-26T10:40:43;2.30;99.90
59025;DHT22;44806;48.008;13.666;2023-02-26T10:43:17;2.20;99.90
59025;DHT22;44806;48.008;13.666;2023-02-26T10:45:54;2.20;99.90
59025;DHT22;44806;48.008;13.666;2023-02-26T10:48:45;2.20;99.90
59025;DHT22;44806;48.008;13.666;2023-02-26T10:51:17;2.20;99.90
59025;DHT22;44806;48.008;13.666;2023-02-26T10:53:48;2.30;99.90
59025;DHT22;44806;48.008;13.666;2023-02-26T10:56:20;2.30;99.90
59025;DHT22;44806;48.008;13.666;2023-02-26T10:58:51;2.30;99.90
59025;DHT22;44806;48.008;13.666;2023-02-26T11:01:21;2.40;99.90
59025;DHT22;44806;48.008;13.666;2023-02-26T11:03:55;2.40;99.90
59025;DHT22;44806;48.008;13.666;2023-02-26T11:06:26;2.30;99.90
59025;DHT22;44806;48.008;13.666;2023-02-26T11:08:58;2.30;99.90
59025;DHT22;44806;48.008;13.666;2023-02-26T11:11:40;2.40;99.90
59025;DHT22;44806;48.008;13.666;2023-02-26T11:14:08;2.30;99.90
59025;DHT22;44806;48.008;13.666;2023-02-26T11:16:43;2.40;99.90
59025;DHT22;44806;48.008;13.666;2023-02-26T11:19:14;2.50;99.90
59025;DHT22;44806;48.008;13.666;2023-02-26T11:21:44;2.50;99.90
59025;DHT22;44806;48.008;13.666;2023-02-26T11:24:17;2.30;99.90
59025;DHT22;44806;48.008;13.666;2023-02-26T11:26:47;2.20;99.90
59025;DHT22;44806;48.008;13.666;2023-02-26T11:29:17;2.30;99.90
59025;DHT22;44806;48.008;13.666;2023-02-26T11:31:47;2.30;99.90
59025;DHT22;44806;48.008;13.666;2023-02-26T11:34:21;2.40;99.90
59025;DHT22;44806;48.008;13.666;2023-02-26T11:36:50;2.40;99.90
59025;DHT22;44806;48.008;13.666;2023-02-26T11:39:21;2.40;99.90
59025;DHT22;44806;48.008;13.666;2023-02-26T11:41:55;2.40;99.90
59025;DHT22;44806;48.008;13.666;2023-02-26T11:44:31;2.50;99.90
59025;DHT22;44806;48.008;13.666;2023-02-26T11:47:08;2.50;99.90
59025;DHT22;44806;48.008;13.666;2023-02-26T11:49:41;2.80;99.90
59025;DHT22;44806;48.008;13.666;2023-02-26T11:52:19;2.90;99.90
59025;DHT22;44806;48.008;13.666;2023-02-26T11:54:50;2.90;99.90
59025;DHT22;44806;48.008;13.666;2023-02-26T11:57:21;2.80;99.90
59025;DHT22;44806;48.008;13.666;2023-02-26T11:59:51;2.70;99.90
59025;DHT22;44806;48.008;13.666;2023-02-26T12:02:21;2.60;99.90
59025;DHT22;44806;48.008;13.666;2023-02-26T12:04:52;2.60;99.90
59025;DHT22;44806;48.008;13.666;2023-02-26T12:07:21;2.60;99.90
59025;DHT22;44806;48.008;13.666;2023-02-26T12:09:49;2.50;99.90
59025;DHT22;44806;48.008;13.666;2023-02-26T12:12:32;2.40;99.90
59025;DHT22;44806;48.008;13.666;2023-02-26T12:15:24;2.50;99.90
59025;DHT22;44806;48.008;13.666;2023-02-26T12:18:23;2.60;99.90
59025;DHT22;44806;48.008;13.666;2023-02-26T12:21:11;2.70;99.90
59025;DHT22;44806;48.008;13.666;2023-02-26T12:24:13;2.90;99.90
59025;DHT22;44806;48.008;13.666;2023-02-26T12:26:50;3.00;99.90
59025;DHT22;44806;48.008;13.666;2023-02-26T12:29:53;3.20;99.90
59025;DHT22;44806;48.008;13.666;2023-02-26T12:32:59;3.40;99.90
59025;DHT22;44806;48.008;13.666;2023-02-26T12:35:50;3.40;99.90
59025;DHT22;44806;48.008;13.666;2023-02-26T12:38:26;3.50;99.90
59025;DHT22;44806;48.008;13.666;2023-02-26T12:41:14;3.60;99.90
59025;DHT22;44806;48.008;13.666;2023-02-26T12:43:50;3.70;99.90
59025;DHT22;44806;48.008;13.666;2023-02-26T12:46:31;3.80;99.90
59025;DHT22;44806;48.008;13.666;2023-02-26T12:49:30;3.90;99.90
59025;DHT22;44806;48.008;13.666;2023-02-26T12:55:13;4.00;99.90
59025;DHT22;44806;48.008;13.666;2023-02-26T12:58:27;4.00;99.90
59025;DHT22;44806;48.008;13.666;2023-02-26T13:04:53;3.20;99.90
59025;DHT22;44806;48.008;13.666;2023-02-26T13:10:40;2.90;99.90
59025;DHT22;44806;48.008;13.666;2023-02-26T13:13:19;2.80;99.90
59025;DHT22;44806;48.008;13.666;2023-02-26T13:16:00;2.70;99.90
59025;DHT22;44806;48.008;13.666;2023-02-26T13:18:42;2.60;99.90
59025;DHT22;44806;48.008;13.666;2023-02-26T13:21:15;2.40;99.90
59025;DHT22;44806;48.008;13.666;2023-02-26T13:23:48;2.30;99.90
59025;DHT22;44806;48.008;13.666;2023-02-26T13:26:20;2.10;99.90
59025;DHT22;44806;48.008;13.666;2023-02-26T13:28:51;2.10;99.90
59025;DHT22;44806;48.008;13.666;2023-02-26T13:31:24;2.00;99.90
59025;DHT22;44806;48.008;13.666;2023-02-26T13:33:58;2.00;99.90
59025;DHT22;44806;48.008;13.666;2023-02-26T13:36:31;1.90;99.90
59025;DHT22;44806;48.008;13.666;2023-02-26T13:39:20;1.80;99.90
59025;DHT22;44806;48.008;13.666;2023-02-26T13:41:57;1.80;99.90
59025;DHT22;44806;48.008;13.666;2023-02-26T13:44:33;1.90;99.90
59025;DHT22;44806;48.008;13.666;2023-02-26T13:47:37;2.10;99.90
59025;DHT22;44806;48.008;13.666;2023-02-26T13:50:22;2.30;99.90
59025;DHT22;44806;48.008;13.666;2023-02-26T13:52:56;2.40;99.90
59025;DHT22;44806;48.008;13.666;2023-02-26T13:55:45;2.50;99.90
59025;DHT22;44806;48.008;13.666;2023-02-26T13:58:28;2.60;99.90
59025;DHT22;44806;48.008;13.666;2023-02-26T14:00:59;2.70;99.90
59025;DHT22;44806;48.008;13.666;2023-02-26T14:03:32;2.80;99.90
59025;DHT22;44806;48.008;13.666;2023-02-26T14:06:09;2.90;99.90
59025;DHT22;44806;48.008;13.666;2023-02-26T14:08:51;2.90;99.90
59025;DHT22;44806;48.008;13.666;2023-02-26T14:11:55;2.90;99.90
59025;DHT22;44806;48.008;13.666;2023-02-26T14:14:34;3.10;99.90
59025;DHT22;44806;48.008;13.666;2023-02-26T14:17:34;3.10;99.90
59025;DHT22;44806;48.008;13.666;2023-02-26T14:20:23;3.20;99.90
59025;DHT22;44806;48.008;13.666;2023-02-26T14:22:58;3.10;99.90
59025;DHT22;44806;48.008;13.666;2023-02-26T14:25:31;3.20;99.90
59025;DHT22;44806;48.008;13.666;2023-02-26T14:28:18;3.20;99.90
59025;DHT22;44806;48.008;13.666;2023-02-26T14:30:50;3.30;99.90
59025;DHT22;44806;48.008;13.666;2023-02-26T14:33:28;3.30;99.90
59025;DHT22;44806;48.008;13.666;2023-02-26T14:35:56;3.40;99.90
59025;DHT22;44806;48.008;13.666;2023-02-26T14:38:27;3.30;99.90
59025;DHT22;44806;48.008;13.666;2023-02-26T14:40:59;3.20;99.90
59025;DHT22;44806;48.008;13.666;2023-02-26T14:43:34;3.10;99.90
59025;DHT22;44806;48.008;13.666;2023-02-26T14:46:06;2.90;99.70
59025;DHT22;44806;48.008;13.666;2023-02-26T14:48:35;2.70;99.30
59025;DHT22;44806;48.008;13.666;2023-02-26T14:51:15;2.80;99.90
59025;DHT22;44806;48.008;13.666;2023-02-26T14:56:47;2.70;99.90
59025;DHT22;44806;48.008;13.666;2023-02-26T14:59:44;2.70;99.90
59025;DHT22;44806;48.008;13.666;2023-02-26T15:02:24;2.60;98.60
59025;DHT22;44806;48.008;13.666;2023-02-26T15:05:10;2.50;98.90
59025;DHT22;44806;48.008;13.666;2023-02-26T15:07:52;2.60;99.10
59025;DHT22;44806;48.008;13.666;2023-02-26T15:10:34;2.50;98.40
59025;DHT22;44806;48.008;13.666;2023-02-26T15:13:26;2.50;99.20
59025;DHT22;44806;48.008;13.666;2023-02-26T15:15:57;2.40;98.40
59025;DHT22;44806;48.008;13.666;2023-02-26T15:18:48;2.40;99.20
59025;DHT22;44806;48.008;13.666;2023-02-26T15:21:24;2.30;97.80
59025;DHT22;44806;48.008;13.666;2023-02-26T15:23:56;2.30;99.20
59025;DHT22;44806;48.008;13.666;2023-02-26T15:26:27;2.30;99.20
59025;DHT22;44806;48.008;13.666;2023-02-26T15:28:55;2.30;98.90
59025;DHT22;44806;48.008;13.666;2023-02-26T15:31:30;2.30;99.00
59025;DHT22;44806;48.008;13.666;2023-02-26T15:34:01;2.20;97.90
59025;DHT22;44806;48.008;13.666;2023-02-26T15:36:30;2.20;97.80
59025;DHT22;44806;48.008;13.666;2023-02-26T15:38:59;2.20;98.10
59025;DHT22;44806;48.008;13.666;2023-02-26T15:41:32;2.20;97.40
59025;DHT22;44806;48.008;13.666;2023-02-26T15:44:02;2.10;96.10
59025;DHT22;44806;48.008;13.666;2023-02-26T15:46:36;2.20;97.50
59025;DHT22;44806;48.008;13.666;2023-02-26T15:49:11;2.10;95.80
59025;DHT22;44806;48.008;13.666;2023-02-26T15:51:41;2.10;97.40
59025;DHT22;44806;48.008;13.666;2023-02-26T15:54:16;2.20;97.20
59025;DHT22;44806;48.008;13.666;2023-02-26T15:56:44;2.10;97.30
59025;DHT22;44806;48.008;13.666;2023-02-26T15:59:16;2.10;97.30
59025;DHT22;44806;48.008;13.666;2023-02-26T16:01:44;2.10;96.60
59025;DHT22;44806;48.008;13.666;2023-02-26T16:04:15;2.00;97.90
59025;DHT22;44806;48.008;13.666;2023-02-26T16:06:47;2.10;97.30
59025;DHT22;44806;48.008;13.666;2023-02-26T16:09:17;2.00;98.80
59025;DHT22;44806;48.008;13.666;2023-02-26T16:11:46;2.20;99.80
59025;DHT22;44806;48.008;13.666;2023-02-26T16:14:21;2.10;98.70
59025;DHT22;44806;48.008;13.666;2023-02-26T16:16:54;2.10;97.80
59025;DHT22;44806;48.008;13.666;2023-02-26T16:19:30;2.10;98.80
59025;DHT22;44806;48.008;13.666;2023-02-26T16:22:01;2.10;98.90